sensor_id;sensor_type;location;lat;lon;timestamp;P1;durP1;ratioP1;P2;durP2;ratioP2
3779;SDS011;1905;52.482;9.802;2023-06-22T00:00:25;18.27;;;12.40;;
3779;SDS011;1905;52.482;9.802;2023-06-22T00:02:53;17.40;;;11.07;;
3779;SDS011;1905;52.482;9.802;2023-06-22T00:05:21;16.90;;;11.37;;
3779;SDS011;1905;52.482;9.802;2023-06-22T00:07:48;16.80;;;10.73;;
3779;SDS011;1905;52.482;9.802;2023-06-22T00:10:16;16.37;;;11.70;;
3779;SDS011;1905;52.482;9.802;2023-06-22T00:12:45;16.40;;;11.50;;
3779;SDS011;1905;52.482;9.802;2023-06-22T00:15:12;19.40;;;13.10;;
3779;SDS011;1905;52.482;9.802;2023-06-22T00:17:40;18.83;;;11.80;;
3779;SDS011;1905;52.482;9.802;2023-06-22T00:20:08;18.10;;;11.47;;
3779;SDS011;1905;52.482;9.802;2023-06-22T00:22:36;16.17;;;11.10;;
3779;SDS011;1905;52.482;9.802;2023-06-22T00:25:05;16.73;;;11.03;;
3779;SDS011;1905;52.482;9.802;2023-06-22T00:27:34;17.43;;;11.93;;
3779;SDS011;1905;52.482;9.802;2023-06-22T00:30:03;16.23;;;10.30;;
3779;SDS011;1905;52.482;9.802;2023-06-22T00:32:31;15.20;;;11.03;;
3779;SDS011;1905;52.482;9.802;2023-06-22T00:34:59;15.00;;;10.43;;
3779;SDS011;1905;52.482;9.802;2023-06-22T00:37:28;16.63;;;10.77;;
3779;SDS011;1905;52.482;9.802;2023-06-22T00:39:56;17.97;;;11.20;;
3779;SDS011;1905;52.482;9.802;2023-06-22T00:42:23;17.13;;;11.77;;
3779;SDS011;1905;52.482;9.802;2023-06-22T00:44:52;15.73;;;12.00;;
3779;SDS011;1905;52.482;9.802;2023-06-22T00:47:21;16.43;;;10.20;;
3779;SDS011;1905;52.482;9.802;2023-06-22T00:49:49;15.30;;;10.30;;
3779;SDS011;1905;52.482;9.802;2023-06-22T00:52:18;15.60;;;11.20;;
3779;SDS011;1905;52.482;9.802;2023-06-22T00:54:54;17.40;;;11.03;;
3779;SDS011;1905;52.482;9.802;2023-06-22T00:57:23;16.27;;;11.80;;
3779;SDS011;1905;52.482;9.802;2023-06-22T00:59:54;16.17;;;10.60;;
3779;SDS011;1905;52.482;9.802;2023-06-22T01:02:24;20.20;;;10.33;;
3779;SDS011;1905;52.482;9.802;2023-06-22T01:04:51;17.30;;;11.43;;
3779;SDS011;1905;52.482;9.802;2023-06-22T01:07:23;19.67;;;11.70;;
3779;SDS011;1905;52.482;9.802;2023-06-22T01:10:01;19.00;;;12.10;;
3779;SDS011;1905;52.482;9.802;2023-06-22T01:12:38;15.57;;;10.87;;
3779;SDS011;1905;52.482;9.802;2023-06-22T01:15:10;16.23;;;10.30;;
3779;SDS011;1905;52.482;9.802;2023-06-22T01:17:42;16.90;;;11.47;;
3779;SDS011;1905;52.482;9.802;2023-06-22T01:20:11;16.43;;;10.83;;
3779;SDS011;1905;52.482;9.802;2023-06-22T01:22:45;19.00;;;12.00;;
3779;SDS011;1905;52.482;9.802;2023-06-22T01:25:28;18.50;;;11.20;;
3779;SDS011;1905;52.482;9.802;2023-06-22T01:28:03;20.07;;;10.60;;
3779;SDS011;1905;52.482;9.802;2023-06-22T01:30:44;14.97;;;10.30;;
3779;SDS011;1905;52.482;9.802;2023-06-22T01:33:13;15.93;;;10.23;;
3779;SDS011;1905;52.482;9.802;2023-06-22T01:35:42;16.30;;;10.30;;
3779;SDS011;1905;52.482;9.802;2023-06-22T01:38:11;15.77;;;11.20;;
3779;SDS011;1905;52.482;9.802;2023-06-22T01:40:39;15.40;;;10.20;;
3779;SDS011;1905;52.482;9.802;2023-06-22T01:43:07;15.43;;;10.13;;
3779;SDS011;1905;52.482;9.802;2023-06-22T01:45:35;15.93;;;10.57;;
3779;SDS011;1905;52.482;9.802;2023-06-22T01:48:04;15.13;;;10.27;;
3779;SDS011;1905;52.482;9.802;2023-06-22T01:50:34;15.67;;;10.73;;
3779;SDS011;1905;52.482;9.802;2023-06-22T01:53:02;14.73;;;9.70;;
3779;SDS011;1905;52.482;9.802;2023-06-22T01:55:31;16.37;;;10.67;;
3779;SDS011;1905;52.482;9.802;2023-06-22T01:57:59;14.27;;;9.40;;
3779;SDS011;1905;52.482;9.802;2023-06-22T02:00:28;14.60;;;9.50;;
3779;SDS011;1905;52.482;9.802;2023-06-22T02:02:59;17.10;;;10.70;;
3779;SDS011;1905;52.482;9.802;2023-06-22T02:05:34;12.60;;;8.73;;
3779;SDS011;1905;52.482;9.802;2023-06-22T02:08:06;13.10;;;8.80;;
3779;SDS011;1905;52.482;9.802;2023-06-22T02:10:37;15.13;;;9.70;;
3779;SDS011;1905;52.482;9.802;2023-06-22T02:13:08;15.13;;;10.90;;
3779;SDS011;1905;52.482;9.802;2023-06-22T02:15:37;15.63;;;9.47;;
3779;SDS011;1905;52.482;9.802;2023-06-22T02:18:05;14.03;;;9.30;;
3779;SDS011;1905;52.482;9.802;2023-06-22T02:20:37;15.77;;;9.93;;
3779;SDS011;1905;52.482;9.802;2023-06-22T02:23:05;13.77;;;9.67;;
3779;SDS011;1905;52.482;9.802;2023-06-22T02:25:34;18.97;;;10.77;;
3779;SDS011;1905;52.482;9.802;2023-06-22T02:28:02;14.37;;;9.70;;
3779;SDS011;1905;52.482;9.802;2023-06-22T02:30:30;14.20;;;9.40;;
3779;SDS011;1905;52.482;9.802;2023-06-22T02:32:58;18.13;;;10.60;;
3779;SDS011;1905;52.482;9.802;2023-06-22T02:35:26;16.17;;;8.53;;
3779;SDS011;1905;52.482;9.802;2023-06-22T02:37:59;14.50;;;9.30;;
3779;SDS011;1905;52.482;9.802;2023-06-22T02:40:27;17.47;;;9.90;;
3779;SDS011;1905;52.482;9.802;2023-06-22T02:42:55;14.90;;;10.30;;
3779;SDS011;1905;52.482;9.802;2023-06-22T02:45:24;12.77;;;8.20;;
3779;SDS011;1905;52.482;9.802;2023-06-22T02:47:52;14.87;;;9.40;;
3779;SDS011;1905;52.482;9.802;2023-06-22T02:50:20;15.37;;;9.63;;
3779;SDS011;1905;52.482;9.802;2023-06-22T02:52:48;14.83;;;9.20;;
3779;SDS011;1905;52.482;9.802;2023-06-22T02:55:16;14.40;;;8.00;;
3779;SDS011;1905;52.482;9.802;2023-06-22T02:57:52;11.90;;;7.57;;
3779;SDS011;1905;52.482;9.802;2023-06-22T03:00:20;14.00;;;8.37;;
3779;SDS011;1905;52.482;9.802;2023-06-22T03:02:48;16.03;;;8.80;;
3779;SDS011;1905;52.482;9.802;2023-06-22T03:05:17;14.03;;;9.00;;
3779;SDS011;1905;52.482;9.802;2023-06-22T03:07:47;12.93;;;8.23;;
3779;SDS011;1905;52.482;9.802;2023-06-22T03:10:16;14.00;;;8.73;;
3779;SDS011;1905;52.482;9.802;2023-06-22T03:12:44;11.20;;;7.70;;
3779;SDS011;1905;52.482;9.802;2023-06-22T03:15:12;15.40;;;9.47;;
3779;SDS011;1905;52.482;9.802;2023-06-22T03:17:40;13.50;;;8.77;;
3779;SDS011;1905;52.482;9.802;2023-06-22T03:20:08;12.40;;;8.00;;
3779;SDS011;1905;52.482;9.802;2023-06-22T03:22:38;13.17;;;7.80;;
3779;SDS011;1905;52.482;9.802;2023-06-22T03:25:07;11.33;;;7.67;;
3779;SDS011;1905;52.482;9.802;2023-06-22T03:27:43;12.00;;;8.33;;
3779;SDS011;1905;52.482;9.802;2023-06-22T03:30:11;11.57;;;6.70;;
3779;SDS011;1905;52.482;9.802;2023-06-22T03:32:39;13.67;;;10.23;;
3779;SDS011;1905;52.482;9.802;2023-06-22T03:35:07;26.73;;;12.83;;
3779;SDS011;1905;52.482;9.802;2023-06-22T03:37:36;12.90;;;8.20;;
3779;SDS011;1905;52.482;9.802;2023-06-22T03:40:04;22.33;;;10.83;;
3779;SDS011;1905;52.482;9.802;2023-06-22T03:42:34;19.20;;;9.70;;
3779;SDS011;1905;52.482;9.802;2023-06-22T03:45:04;14.90;;;9.90;;
3779;SDS011;1905;52.482;9.802;2023-06-22T03:47:32;13.53;;;9.77;;
3779;SDS011;1905;52.482;9.802;2023-06-22T03:50:00;14.97;;;9.70;;
3779;SDS011;1905;52.482;9.802;2023-06-22T03:52:29;17.10;;;10.50;;
3779;SDS011;1905;52.482;9.802;2023-06-22T03:54:57;13.80;;;8.57;;
3779;SDS011;1905;52.482;9.802;2023-06-22T03:57:25;15.97;;;10.17;;
3779;SDS011;1905;52.482;9.802;2023-06-22T03:59:53;14.97;;;8.93;;
3779;SDS011;1905;52.482;9.802;2023-06-22T04:02:23;14.00;;;9.90;;
3779;SDS011;1905;52.482;9.802;2023-06-22T04:04:50;14.70;;;9.70;;
3779;SDS011;1905;52.482;9.802;2023-06-22T04:07:18;15.43;;;9.60;;
3779;SDS011;1905;52.482;9.802;2023-06-22T04:09:45;15.97;;;10.67;;
3779;SDS011;1905;52.482;9.802;2023-06-22T04:12:13;16.40;;;9.93;;
3779;SDS011;1905;52.482;9.802;2023-06-22T04:14:40;19.80;;;10.67;;
3779;SDS011;1905;52.482;9.802;2023-06-22T04:17:08;15.33;;;10.47;;
3779;SDS011;1905;52.482;9.802;2023-06-22T04:19:37;16.07;;;10.00;;
3779;SDS011;1905;52.482;9.802;2023-06-22T04:22:04;18.13;;;10.50;;
3779;SDS011;1905;52.482;9.802;2023-06-22T04:24:33;13.07;;;9.00;;
3779;SDS011;1905;52.482;9.802;2023-06-22T04:27:01;12.47;;;7.10;;
3779;SDS011;1905;52.482;9.802;2023-06-22T04:29:29;14.23;;;10.20;;
3779;SDS011;1905;52.482;9.802;2023-06-22T04:31:57;13.50;;;9.17;;
3779;SDS011;1905;52.482;9.802;2023-06-22T04:34:29;16.67;;;9.77;;
3779;SDS011;1905;52.482;9.802;2023-06-22T04:36:58;14.07;;;9.30;;
3779;SDS011;1905;52.482;9.802;2023-06-22T04:39:25;14.03;;;8.83;;
3779;SDS011;1905;52.482;9.802;2023-06-22T04:41:53;14.50;;;9.97;;
3779;SDS011;1905;52.482;9.802;2023-06-22T04:44:26;15.07;;;9.77;;
3779;SDS011;1905;52.482;9.802;2023-06-22T04:46:55;17.97;;;9.97;;
3779;SDS011;1905;52.482;9.802;2023-06-22T04:49:27;13.33;;;9.20;;
3779;SDS011;1905;52.482;9.802;2023-06-22T04:52:00;17.27;;;9.87;;
3779;SDS011;1905;52.482;9.802;2023-06-22T04:54:28;14.03;;;9.07;;
3779;SDS011;1905;52.482;9.802;2023-06-22T04:56:59;15.00;;;8.77;;
3779;SDS011;1905;52.482;9.802;2023-06-22T04:59:27;13.40;;;8.90;;
3779;SDS011;1905;52.482;9.802;2023-06-22T05:01:56;15.27;;;9.97;;
3779;SDS011;1905;52.482;9.802;2023-06-22T05:04:25;11.47;;;7.63;;
3779;SDS011;1905;52.482;9.802;2023-06-22T05:06:54;13.87;;;10.13;;
3779;SDS011;1905;52.482;9.802;2023-06-22T05:09:23;16.77;;;9.97;;
3779;SDS011;1905;52.482;9.802;2023-06-22T05:11:51;14.10;;;9.20;;
3779;SDS011;1905;52.482;9.802;2023-06-22T05:14:19;16.10;;;10.13;;
3779;SDS011;1905;52.482;9.802;2023-06-22T05:16:48;16.20;;;10.23;;
3779;SDS011;1905;52.482;9.802;2023-06-22T05:19:18;13.83;;;8.90;;
3779;SDS011;1905;52.482;9.802;2023-06-22T05:21:45;14.23;;;9.33;;
3779;SDS011;1905;52.482;9.802;2023-06-22T05:24:13;17.57;;;10.27;;
3779;SDS011;1905;52.482;9.802;2023-06-22T05:26:42;16.37;;;10.50;;
3779;SDS011;1905;52.482;9.802;2023-06-22T05:29:09;14.83;;;9.20;;
3779;SDS011;1905;52.482;9.802;2023-06-22T05:31:37;16.53;;;9.67;;
3779;SDS011;1905;52.482;9.802;2023-06-22T05:34:06;12.73;;;8.33;;
3779;SDS011;1905;52.482;9.802;2023-06-22T05:36:33;14.27;;;9.53;;
3779;SDS011;1905;52.482;9.802;2023-06-22T05:39:10;15.50;;;8.80;;
3779;SDS011;1905;52.482;9.802;2023-06-22T05:41:38;13.20;;;8.70;;
3779;SDS011;1905;52.482;9.802;2023-06-22T05:44:07;15.50;;;10.00;;
3779;SDS011;1905;52.482;9.802;2023-06-22T05:46:35;13.60;;;9.73;;
3779;SDS011;1905;52.482;9.802;2023-06-22T05:49:02;16.63;;;9.33;;
3779;SDS011;1905;52.482;9.802;2023-06-22T05:51:30;14.57;;;9.00;;
3779;SDS011;1905;52.482;9.802;2023-06-22T05:53:58;13.90;;;9.10;;
3779;SDS011;1905;52.482;9.802;2023-06-22T05:56:25;16.10;;;8.90;;
3779;SDS011;1905;52.482;9.802;2023-06-22T05:58:53;15.03;;;8.20;;
3779;SDS011;1905;52.482;9.802;2023-06-22T06:01:21;13.73;;;8.30;;
3779;SDS011;1905;52.482;9.802;2023-06-22T06:03:49;12.50;;;8.07;;
3779;SDS011;1905;52.482;9.802;2023-06-22T06:06:18;12.87;;;7.90;;
3779;SDS011;1905;52.482;9.802;2023-06-22T06:08:47;14.53;;;7.33;;
3779;SDS011;1905;52.482;9.802;2023-06-22T06:11:14;11.73;;;7.53;;
3779;SDS011;1905;52.482;9.802;2023-06-22T06:13:42;13.70;;;8.00;;
3779;SDS011;1905;52.482;9.802;2023-06-22T06:16:09;13.10;;;8.00;;
3779;SDS011;1905;52.482;9.802;2023-06-22T06:18:44;13.33;;;8.60;;
3779;SDS011;1905;52.482;9.802;2023-06-22T06:21:11;12.60;;;7.80;;
3779;SDS011;1905;52.482;9.802;2023-06-22T06:23:39;18.10;;;6.30;;
3779;SDS011;1905;52.482;9.802;2023-06-22T06:26:06;13.80;;;7.33;;
3779;SDS011;1905;52.482;9.802;2023-06-22T06:28:34;10.90;;;6.50;;
3779;SDS011;1905;52.482;9.802;2023-06-22T06:31:02;12.50;;;6.20;;
3779;SDS011;1905;52.482;9.802;2023-06-22T06:33:33;11.97;;;5.90;;
3779;SDS011;1905;52.482;9.802;2023-06-22T06:36:02;10.30;;;6.00;;
3779;SDS011;1905;52.482;9.802;2023-06-22T06:38:29;11.67;;;6.63;;
3779;SDS011;1905;52.482;9.802;2023-06-22T06:40:57;12.10;;;6.37;;
3779;SDS011;1905;52.482;9.802;2023-06-22T06:43:25;11.80;;;5.93;;
3779;SDS011;1905;52.482;9.802;2023-06-22T06:45:53;9.30;;;5.17;;
3779;SDS011;1905;52.482;9.802;2023-06-22T06:48:20;10.93;;;6.00;;
3779;SDS011;1905;52.482;9.802;2023-06-22T06:50:48;11.40;;;5.57;;
3779;SDS011;1905;52.482;9.802;2023-06-22T06:53:17;10.63;;;5.17;;
3779;SDS011;1905;52.482;9.802;2023-06-22T06:55:45;10.20;;;5.57;;
3779;SDS011;1905;52.482;9.802;2023-06-22T06:58:12;13.70;;;5.40;;
3779;SDS011;1905;52.482;9.802;2023-06-22T07:00:41;10.00;;;5.63;;
3779;SDS011;1905;52.482;9.802;2023-06-22T07:03:09;10.97;;;5.80;;
3779;SDS011;1905;52.482;9.802;2023-06-22T07:05:37;10.60;;;6.13;;
3779;SDS011;1905;52.482;9.802;2023-06-22T07:08:04;12.83;;;6.40;;
3779;SDS011;1905;52.482;9.802;2023-06-22T07:10:33;9.77;;;5.70;;
3779;SDS011;1905;52.482;9.802;2023-06-22T07:13:01;15.67;;;6.03;;
3779;SDS011;1905;52.482;9.802;2023-06-22T07:15:29;11.50;;;6.43;;
3779;SDS011;1905;52.482;9.802;2023-06-22T07:17:56;12.47;;;6.70;;
3779;SDS011;1905;52.482;9.802;2023-06-22T07:20:24;16.73;;;6.27;;
3779;SDS011;1905;52.482;9.802;2023-06-22T07:22:52;12.00;;;6.40;;
3779;SDS011;1905;52.482;9.802;2023-06-22T07:25:19;14.07;;;6.73;;
3779;SDS011;1905;52.482;9.802;2023-06-22T07:27:58;12.30;;;6.70;;
3779;SDS011;1905;52.482;9.802;2023-06-22T07:30:27;11.53;;;6.63;;
3779;SDS011;1905;52.482;9.802;2023-06-22T07:32:56;11.47;;;6.93;;
3779;SDS011;1905;52.482;9.802;2023-06-22T07:35:24;12.20;;;6.20;;
3779;SDS011;1905;52.482;9.802;2023-06-22T07:37:52;11.90;;;6.80;;
3779;SDS011;1905;52.482;9.802;2023-06-22T07:40:19;14.23;;;7.20;;
3779;SDS011;1905;52.482;9.802;2023-06-22T07:42:47;13.03;;;7.50;;
3779;SDS011;1905;52.482;9.802;2023-06-22T07:45:19;11.47;;;7.20;;
3779;SDS011;1905;52.482;9.802;2023-06-22T07:47:46;11.37;;;6.37;;
3779;SDS011;1905;52.482;9.802;2023-06-22T07:50:14;10.30;;;6.37;;
3779;SDS011;1905;52.482;9.802;2023-06-22T07:52:41;11.83;;;7.23;;
3779;SDS011;1905;52.482;9.802;2023-06-22T07:55:09;11.50;;;6.27;;
3779;SDS011;1905;52.482;9.802;2023-06-22T07:57:36;14.80;;;7.27;;
3779;SDS011;1905;52.482;9.802;2023-06-22T08:00:05;13.33;;;7.97;;
3779;SDS011;1905;52.482;9.802;2023-06-22T08:02:40;13.57;;;7.27;;
3779;SDS011;1905;52.482;9.802;2023-06-22T08:05:09;11.70;;;6.73;;
3779;SDS011;1905;52.482;9.802;2023-06-22T08:07:48;12.60;;;7.60;;
3779;SDS011;1905;52.482;9.802;2023-06-22T08:10:16;14.03;;;7.53;;
3779;SDS011;1905;52.482;9.802;2023-06-22T08:12:44;14.20;;;7.00;;
3779;SDS011;1905;52.482;9.802;2023-06-22T08:15:11;14.03;;;7.47;;
3779;SDS011;1905;52.482;9.802;2023-06-22T08:17:40;12.70;;;7.50;;
3779;SDS011;1905;52.482;9.802;2023-06-22T08:20:08;14.90;;;6.60;;
3779;SDS011;1905;52.482;9.802;2023-06-22T08:22:38;24.87;;;8.90;;
3779;SDS011;1905;52.482;9.802;2023-06-22T08:25:06;12.53;;;7.20;;
3779;SDS011;1905;52.482;9.802;2023-06-22T08:27:35;13.47;;;7.87;;
3779;SDS011;1905;52.482;9.802;2023-06-22T08:30:03;12.40;;;6.77;;
3779;SDS011;1905;52.482;9.802;2023-06-22T08:32:31;11.70;;;6.63;;
3779;SDS011;1905;52.482;9.802;2023-06-22T08:35:01;12.07;;;7.97;;
3779;SDS011;1905;52.482;9.802;2023-06-22T08:37:29;11.50;;;7.30;;
3779;SDS011;1905;52.482;9.802;2023-06-22T08:39:58;12.30;;;7.30;;
3779;SDS011;1905;52.482;9.802;2023-06-22T08:42:27;13.60;;;6.97;;
3779;SDS011;1905;52.482;9.802;2023-06-22T08:44:54;12.03;;;6.83;;
3779;SDS011;1905;52.482;9.802;2023-06-22T08:47:22;11.60;;;7.30;;
3779;SDS011;1905;52.482;9.802;2023-06-22T08:49:50;16.03;;;8.20;;
3779;SDS011;1905;52.482;9.802;2023-06-22T08:52:19;18.30;;;8.67;;
3779;SDS011;1905;52.482;9.802;2023-06-22T08:54:47;13.30;;;7.43;;
3779;SDS011;1905;52.482;9.802;2023-06-22T08:57:14;13.60;;;8.10;;
3779;SDS011;1905;52.482;9.802;2023-06-22T08:59:42;11.70;;;6.80;;
3779;SDS011;1905;52.482;9.802;2023-06-22T09:02:10;14.07;;;7.87;;
3779;SDS011;1905;52.482;9.802;2023-06-22T09:04:38;15.37;;;8.53;;
3779;SDS011;1905;52.482;9.802;2023-06-22T09:07:06;13.60;;;7.90;;
3779;SDS011;1905;52.482;9.802;2023-06-22T09:09:35;13.47;;;8.03;;
3779;SDS011;1905;52.482;9.802;2023-06-22T09:12:02;14.53;;;8.70;;
3779;SDS011;1905;52.482;9.802;2023-06-22T09:14:31;15.50;;;9.10;;
3779;SDS011;1905;52.482;9.802;2023-06-22T09:16:58;13.17;;;8.50;;
3779;SDS011;1905;52.482;9.802;2023-06-22T09:19:26;15.37;;;9.63;;
3779;SDS011;1905;52.482;9.802;2023-06-22T09:21:53;14.57;;;9.73;;
3779;SDS011;1905;52.482;9.802;2023-06-22T09:24:21;16.17;;;8.90;;
3779;SDS011;1905;52.482;9.802;2023-06-22T09:26:50;13.70;;;9.00;;
3779;SDS011;1905;52.482;9.802;2023-06-22T09:29:20;14.00;;;9.20;;
3779;SDS011;1905;52.482;9.802;2023-06-22T09:31:48;17.10;;;8.63;;
3779;SDS011;1905;52.482;9.802;2023-06-22T09:34:16;14.53;;;9.90;;
3779;SDS011;1905;52.482;9.802;2023-06-22T09:36:46;13.60;;;9.13;;
3779;SDS011;1905;52.482;9.802;2023-06-22T09:39:14;14.07;;;8.83;;
3779;SDS011;1905;52.482;9.802;2023-06-22T09:41:41;14.03;;;9.20;;
3779;SDS011;1905;52.482;9.802;2023-06-22T09:44:10;16.77;;;10.13;;
3779;SDS011;1905;52.482;9.802;2023-06-22T09:46:38;16.10;;;10.63;;
3779;SDS011;1905;52.482;9.802;2023-06-22T09:49:06;16.90;;;10.10;;
3779;SDS011;1905;52.482;9.802;2023-06-22T09:51:34;17.73;;;10.37;;
3779;SDS011;1905;52.482;9.802;2023-06-22T09:54:01;14.47;;;9.90;;
3779;SDS011;1905;52.482;9.802;2023-06-22T09:56:29;15.47;;;9.50;;
3779;SDS011;1905;52.482;9.802;2023-06-22T09:58:57;13.33;;;8.73;;
3779;SDS011;1905;52.482;9.802;2023-06-22T10:01:44;14.10;;;7.80;;
3779;SDS011;1905;52.482;9.802;2023-06-22T10:04:12;12.30;;;8.10;;
3779;SDS011;1905;52.482;9.802;2023-06-22T10:06:40;13.73;;;8.77;;
3779;SDS011;1905;52.482;9.802;2023-06-22T10:09:07;19.23;;;9.93;;
3779;SDS011;1905;52.482;9.802;2023-06-22T10:11:35;14.07;;;10.10;;
3779;SDS011;1905;52.482;9.802;2023-06-22T10:14:03;13.70;;;9.20;;
3779;SDS011;1905;52.482;9.802;2023-06-22T10:16:31;14.43;;;9.80;;
3779;SDS011;1905;52.482;9.802;2023-06-22T10:19:00;15.43;;;9.80;;
3779;SDS011;1905;52.482;9.802;2023-06-22T10:21:28;14.80;;;9.03;;
3779;SDS011;1905;52.482;9.802;2023-06-22T10:23:56;15.37;;;9.50;;
3779;SDS011;1905;52.482;9.802;2023-06-22T10:26:23;15.53;;;10.53;;
3779;SDS011;1905;52.482;9.802;2023-06-22T10:28:52;14.30;;;9.70;;
3779;SDS011;1905;52.482;9.802;2023-06-22T10:31:40;16.90;;;10.07;;
3779;SDS011;1905;52.482;9.802;2023-06-22T10:34:09;14.20;;;8.23;;
3779;SDS011;1905;52.482;9.802;2023-06-22T10:36:36;13.50;;;8.90;;
3779;SDS011;1905;52.482;9.802;2023-06-22T10:39:04;15.27;;;9.80;;
3779;SDS011;1905;52.482;9.802;2023-06-22T10:41:32;13.90;;;9.50;;
3779;SDS011;1905;52.482;9.802;2023-06-22T10:43:59;16.10;;;9.20;;
3779;SDS011;1905;52.482;9.802;2023-06-22T10:46:27;14.07;;;9.43;;
3779;SDS011;1905;52.482;9.802;2023-06-22T10:48:54;10.80;;;7.23;;
3779;SDS011;1905;52.482;9.802;2023-06-22T10:51:26;12.43;;;7.70;;
3779;SDS011;1905;52.482;9.802;2023-06-22T10:53:55;13.37;;;8.87;;
3779;SDS011;1905;52.482;9.802;2023-06-22T10:56:23;12.57;;;8.03;;
3779;SDS011;1905;52.482;9.802;2023-06-22T10:58:50;13.73;;;8.63;;
3779;SDS011;1905;52.482;9.802;2023-06-22T11:01:18;13.57;;;8.97;;
3779;SDS011;1905;52.482;9.802;2023-06-22T11:04:01;16.17;;;8.93;;
3779;SDS011;1905;52.482;9.802;2023-06-22T11:06:30;15.20;;;8.67;;
3779;SDS011;1905;52.482;9.802;2023-06-22T11:08:58;15.00;;;8.43;;
3779;SDS011;1905;52.482;9.802;2023-06-22T11:11:29;14.33;;;7.93;;
3779;SDS011;1905;52.482;9.802;2023-06-22T11:13:56;14.60;;;8.97;;
3779;SDS011;1905;52.482;9.802;2023-06-22T11:16:24;12.80;;;8.53;;
3779;SDS011;1905;52.482;9.802;2023-06-22T11:18:51;13.83;;;8.50;;
3779;SDS011;1905;52.482;9.802;2023-06-22T11:21:19;13.90;;;9.40;;
3779;SDS011;1905;52.482;9.802;2023-06-22T11:23:48;13.67;;;7.90;;
3779;SDS011;1905;52.482;9.802;2023-06-22T11:26:16;12.83;;;8.43;;
3779;SDS011;1905;52.482;9.802;2023-06-22T11:28:44;12.80;;;8.33;;
3779;SDS011;1905;52.482;9.802;2023-06-22T11:31:12;11.57;;;8.20;;
3779;SDS011;1905;52.482;9.802;2023-06-22T11:33:42;18.40;;;8.03;;
3779;SDS011;1905;52.482;9.802;2023-06-22T11:36:11;15.33;;;8.80;;
3779;SDS011;1905;52.482;9.802;2023-06-22T11:38:38;11.93;;;8.40;;
3779;SDS011;1905;52.482;9.802;2023-06-22T11:41:08;16.47;;;8.53;;
3779;SDS011;1905;52.482;9.802;2023-06-22T11:43:36;11.57;;;8.67;;
3779;SDS011;1905;52.482;9.802;2023-06-22T11:46:04;12.07;;;8.03;;
3779;SDS011;1905;52.482;9.802;2023-06-22T11:48:34;15.40;;;9.07;;
3779;SDS011;1905;52.482;9.802;2023-06-22T11:51:02;13.67;;;8.77;;
3779;SDS011;1905;52.482;9.802;2023-06-22T11:53:30;12.73;;;8.10;;
3779;SDS011;1905;52.482;9.802;2023-06-22T11:55:57;13.20;;;9.40;;
3779;SDS011;1905;52.482;9.802;2023-06-22T11:58:27;15.13;;;9.30;;
3779;SDS011;1905;52.482;9.802;2023-06-22T12:00:54;16.80;;;8.63;;
3779;SDS011;1905;52.482;9.802;2023-06-22T12:03:22;14.50;;;10.00;;
3779;SDS011;1905;52.482;9.802;2023-06-22T12:05:50;15.73;;;9.17;;
3779;SDS011;1905;52.482;9.802;2023-06-22T12:08:18;14.00;;;8.17;;
3779;SDS011;1905;52.482;9.802;2023-06-22T12:10:46;13.50;;;8.27;;
3779;SDS011;1905;52.482;9.802;2023-06-22T12:13:13;16.43;;;9.60;;
3779;SDS011;1905;52.482;9.802;2023-06-22T12:15:43;12.27;;;8.23;;
3779;SDS011;1905;52.482;9.802;2023-06-22T12:18:11;17.60;;;8.83;;
3779;SDS011;1905;52.482;9.802;2023-06-22T12:20:40;13.10;;;8.73;;
3779;SDS011;1905;52.482;9.802;2023-06-22T12:23:08;16.30;;;10.33;;
3779;SDS011;1905;52.482;9.802;2023-06-22T12:25:35;12.03;;;8.40;;
3779;SDS011;1905;52.482;9.802;2023-06-22T12:28:03;14.47;;;8.87;;
3779;SDS011;1905;52.482;9.802;2023-06-22T12:30:32;13.47;;;9.17;;
3779;SDS011;1905;52.482;9.802;2023-06-22T12:33:01;13.83;;;8.23;;
3779;SDS011;1905;52.482;9.802;2023-06-22T12:35:29;18.00;;;9.40;;
3779;SDS011;1905;52.482;9.802;2023-06-22T12:37:56;12.17;;;8.70;;
3779;SDS011;1905;52.482;9.802;2023-06-22T12:40:24;12.77;;;9.07;;
3779;SDS011;1905;52.482;9.802;2023-06-22T12:42:51;12.93;;;8.60;;
3779;SDS011;1905;52.482;9.802;2023-06-22T12:45:19;12.80;;;8.40;;
3779;SDS011;1905;52.482;9.802;2023-06-22T12:47:47;12.90;;;9.17;;
3779;SDS011;1905;52.482;9.802;2023-06-22T12:50:17;12.33;;;8.50;;
3779;SDS011;1905;52.482;9.802;2023-06-22T12:52:45;14.17;;;9.43;;
3779;SDS011;1905;52.482;9.802;2023-06-22T12:55:12;13.77;;;9.47;;
3779;SDS011;1905;52.482;9.802;2023-06-22T12:57:40;15.60;;;8.70;;
3779;SDS011;1905;52.482;9.802;2023-06-22T13:00:08;15.03;;;10.53;;
3779;SDS011;1905;52.482;9.802;2023-06-22T13:02:37;19.57;;;9.87;;
3779;SDS011;1905;52.482;9.802;2023-06-22T13:05:05;12.67;;;8.43;;
3779;SDS011;1905;52.482;9.802;2023-06-22T13:07:35;13.20;;;9.57;;
3779;SDS011;1905;52.482;9.802;2023-06-22T13:10:02;13.23;;;8.90;;
3779;SDS011;1905;52.482;9.802;2023-06-22T13:12:31;14.90;;;9.60;;
3779;SDS011;1905;52.482;9.802;2023-06-22T13:14:58;11.73;;;8.27;;
3779;SDS011;1905;52.482;9.802;2023-06-22T13:17:26;16.13;;;9.60;;
3779;SDS011;1905;52.482;9.802;2023-06-22T13:19:53;13.57;;;9.57;;
3779;SDS011;1905;52.482;9.802;2023-06-22T13:22:25;13.23;;;9.30;;
3779;SDS011;1905;52.482;9.802;2023-06-22T13:24:58;13.00;;;8.50;;
3779;SDS011;1905;52.482;9.802;2023-06-22T13:27:26;15.73;;;10.13;;
3779;SDS011;1905;52.482;9.802;2023-06-22T13:29:54;15.53;;;8.43;;
3779;SDS011;1905;52.482;9.802;2023-06-22T13:32:21;14.80;;;8.93;;
3779;SDS011;1905;52.482;9.802;2023-06-22T13:34:49;12.40;;;8.43;;
3779;SDS011;1905;52.482;9.802;2023-06-22T13:37:17;12.17;;;7.40;;
3779;SDS011;1905;52.482;9.802;2023-06-22T13:39:44;15.30;;;7.87;;
3779;SDS011;1905;52.482;9.802;2023-06-22T13:42:13;13.07;;;9.00;;
3779;SDS011;1905;52.482;9.802;2023-06-22T13:44:41;14.07;;;9.13;;
3779;SDS011;1905;52.482;9.802;2023-06-22T13:47:09;13.73;;;8.73;;
3779;SDS011;1905;52.482;9.802;2023-06-22T13:49:36;20.53;;;9.53;;
3779;SDS011;1905;52.482;9.802;2023-06-22T13:52:04;14.93;;;10.17;;
3779;SDS011;1905;52.482;9.802;2023-06-22T13:54:36;14.43;;;9.13;;
3779;SDS011;1905;52.482;9.802;2023-06-22T13:57:04;15.23;;;10.47;;
3779;SDS011;1905;52.482;9.802;2023-06-22T13:59:33;14.73;;;10.40;;
3779;SDS011;1905;52.482;9.802;2023-06-22T14:02:02;11.70;;;8.40;;
3779;SDS011;1905;52.482;9.802;2023-06-22T14:04:29;14.93;;;9.10;;
3779;SDS011;1905;52.482;9.802;2023-06-22T14:06:57;19.93;;;10.70;;
3779;SDS011;1905;52.482;9.802;2023-06-22T14:09:25;13.90;;;9.90;;
3779;SDS011;1905;52.482;9.802;2023-06-22T14:11:53;13.83;;;9.80;;
3779;SDS011;1905;52.482;9.802;2023-06-22T14:14:21;13.37;;;8.50;;
3779;SDS011;1905;52.482;9.802;2023-06-22T14:16:50;14.90;;;9.53;;
3779;SDS011;1905;52.482;9.802;2023-06-22T14:19:18;12.70;;;8.70;;
3779;SDS011;1905;52.482;9.802;2023-06-22T14:21:45;13.77;;;9.40;;
3779;SDS011;1905;52.482;9.802;2023-06-22T14:24:13;11.73;;;8.00;;
3779;SDS011;1905;52.482;9.802;2023-06-22T14:26:40;13.00;;;8.87;;
3779;SDS011;1905;52.482;9.802;2023-06-22T14:29:08;13.67;;;9.40;;
3779;SDS011;1905;52.482;9.802;2023-06-22T14:31:36;14.20;;;9.70;;
3779;SDS011;1905;52.482;9.802;2023-06-22T14:34:05;15.87;;;9.03;;
3779;SDS011;1905;52.482;9.802;2023-06-22T14:36:32;14.40;;;9.90;;
3779;SDS011;1905;52.482;9.802;2023-06-22T14:39:00;11.93;;;8.50;;
3779;SDS011;1905;52.482;9.802;2023-06-22T14:41:28;14.40;;;9.20;;
3779;SDS011;1905;52.482;9.802;2023-06-22T14:43:57;15.07;;;10.10;;
3779;SDS011;1905;52.482;9.802;2023-06-22T14:46:25;16.27;;;10.60;;
3779;SDS011;1905;52.482;9.802;2023-06-22T14:48:53;14.97;;;9.80;;
3779;SDS011;1905;52.482;9.802;2023-06-22T14:51:22;19.67;;;9.23;;
3779;SDS011;1905;52.482;9.802;2023-06-22T14:53:50;14.33;;;9.00;;
3779;SDS011;1905;52.482;9.802;2023-06-22T14:56:17;14.17;;;9.67;;
3779;SDS011;1905;52.482;9.802;2023-06-22T14:58:45;13.33;;;8.90;;
3779;SDS011;1905;52.482;9.802;2023-06-22T15:01:13;14.23;;;8.80;;
3779;SDS011;1905;52.482;9.802;2023-06-22T15:03:41;14.13;;;9.50;;
3779;SDS011;1905;52.482;9.802;2023-06-22T15:06:09;13.67;;;9.33;;